sensor_id;sensor_type;location;lat;lon;timestamp;temperature;humidity
23544;DHT22;11950;51.230;4.012;2022-10-26T00:00:09;15.10;99.90
23544;DHT22;11950;51.230;4.012;2022-10-26T00:02:37;15.10;99.90
23544;DHT22;11950;51.230;4.012;2022-10-26T00:05:04;15.10;99.90
23544;DHT22;11950;51.230;4.012;2022-10-26T00:07:31;15.10;99.90
23544;DHT22;11950;51.230;4.012;2022-10-26T00:09:57;15.10;99.90
23544;DHT22;11950;51.230;4.012;2022-10-26T00:12:23;15.10;99.90
23544;DHT22;11950;51.230;4.012;2022-10-26T00:14:49;15.10;99.90
23544;DHT22;11950;51.230;4.012;2022-10-26T00:17:15;15.10;99.90
23544;DHT22;11950;51.230;4.012;2022-10-26T00:19:42;15.10;99.90
23544;DHT22;11950;51.230;4.012;2022-10-26T00:22:08;15.10;99.90
23544;DHT22;11950;51.230;4.012;2022-10-26T00:24:34;15.10;99.90
23544;DHT22;11950;51.230;4.012;2022-10-26T00:27:00;15.10;99.90
23544;DHT22;11950;51.230;4.012;2022-10-26T00:29:26;15.10;99.90
23544;DHT22;11950;51.230;4.012;2022-10-26T00:31:53;15.20;99.90
23544;DHT22;11950;51.230;4.012;2022-10-26T00:34:19;15.00;99.90
23544;DHT22;11950;51.230;4.012;2022-10-26T00:36:45;15.10;99.90
23544;DHT22;11950;51.230;4.012;2022-10-26T00:39:12;15.10;99.90
23544;DHT22;11950;51.230;4.012;2022-10-26T00:41:39;15.10;99.90
23544;DHT22;11950;51.230;4.012;2022-10-26T00:47:10;15.20;99.90
23544;DHT22;11950;51.230;4.012;2022-10-26T00:49:37;15.30;99.90
23544;DHT22;11950;51.230;4.012;2022-10-26T00:52:05;14.90;99.90
23544;DHT22;11950;51.230;4.012;2022-10-26T00:54:32;15.00;99.90
23544;DHT22;11950;51.230;4.012;2022-10-26T00:56:58;15.10;99.90
23544;DHT22;11950;51.230;4.012;2022-10-26T00:59:25;15.10;99.90
23544;DHT22;11950;51.230;4.012;2022-10-26T01:01:51;15.10;99.90
23544;DHT22;11950;51.230;4.012;2022-10-26T01:04:19;15.00;99.90
23544;DHT22;11950;51.230;4.012;2022-10-26T01:06:46;15.00;99.90
23544;DHT22;11950;51.230;4.012;2022-10-26T01:09:12;15.10;99.90
23544;DHT22;11950;51.230;4.012;2022-10-26T01:11:38;15.10;99.90
23544;DHT22;11950;51.230;4.012;2022-10-26T01:14:07;15.10;99.90
23544;DHT22;11950;51.230;4.012;2022-10-26T01:19:54;14.90;99.90
23544;DHT22;11950;51.230;4.012;2022-10-26T01:22:55;15.00;99.90
23544;DHT22;11950;51.230;4.012;2022-10-26T01:25:52;15.00;99.90
23544;DHT22;11950;51.230;4.012;2022-10-26T01:30:57;15.00;99.90
23544;DHT22;11950;51.230;4.012;2022-10-26T01:33:41;14.80;99.90
23544;DHT22;11950;51.230;4.012;2022-10-26T01:36:19;14.80;99.90
23544;DHT22;11950;51.230;4.012;2022-10-26T01:38:54;14.90;99.90
23544;DHT22;11950;51.230;4.012;2022-10-26T01:41:36;14.90;99.90
23544;DHT22;11950;51.230;4.012;2022-10-26T01:44:09;15.00;99.90
23544;DHT22;11950;51.230;4.012;2022-10-26T01:46:41;15.20;99.90
23544;DHT22;11950;51.230;4.012;2022-10-26T01:49:12;15.00;99.90
23544;DHT22;11950;51.230;4.012;2022-10-26T01:51:41;15.10;99.90
23544;DHT22;11950;51.230;4.012;2022-10-26T01:54:08;15.00;99.90
23544;DHT22;11950;51.230;4.012;2022-10-26T01:56:38;15.20;99.90
23544;DHT22;11950;51.230;4.012;2022-10-26T01:59:30;14.90;99.90
23544;DHT22;11950;51.230;4.012;2022-10-26T02:19:39;15.10;99.90
23544;DHT22;11950;51.230;4.012;2022-10-26T02:24:34;15.20;99.90
23544;DHT22;11950;51.230;4.012;2022-10-26T02:27:02;15.10;99.90
23544;DHT22;11950;51.230;4.012;2022-10-26T02:29:31;15.00;99.90
23544;DHT22;11950;51.230;4.012;2022-10-26T02:31:59;15.00;99.90
23544;DHT22;11950;51.230;4.012;2022-10-26T02:34:27;14.90;99.90
23544;DHT22;11950;51.230;4.012;2022-10-26T02:36:57;15.10;99.90
23544;DHT22;11950;51.230;4.012;2022-10-26T02:39:26;15.10;99.90
23544;DHT22;11950;51.230;4.012;2022-10-26T02:41:55;15.10;99.90
23544;DHT22;11950;51.230;4.012;2022-10-26T02:44:26;15.10;99.90
23544;DHT22;11950;51.230;4.012;2022-10-26T02:46:54;15.20;99.90
23544;DHT22;11950;51.230;4.012;2022-10-26T02:49:22;15.10;99.90
23544;DHT22;11950;51.230;4.012;2022-10-26T02:57:04;15.10;99.90
23544;DHT22;11950;51.230;4.012;2022-10-26T02:59:35;15.20;99.90
23544;DHT22;11950;51.230;4.012;2022-10-26T03:02:03;15.10;99.90
23544;DHT22;11950;51.230;4.012;2022-10-26T03:04:31;15.20;99.90
23544;DHT22;11950;51.230;4.012;2022-10-26T03:06:58;15.30;99.90
23544;DHT22;11950;51.230;4.012;2022-10-26T03:09:25;15.20;99.90
23544;DHT22;11950;51.230;4.012;2022-10-26T03:11:52;15.20;99.90
23544;DHT22;11950;51.230;4.012;2022-10-26T03:14:18;15.30;99.90
23544;DHT22;11950;51.230;4.012;2022-10-26T03:16:45;15.10;99.90
23544;DHT22;11950;51.230;4.012;2022-10-26T03:19:11;15.00;99.90
23544;DHT22;11950;51.230;4.012;2022-10-26T03:24:04;15.80;99.90
23544;DHT22;11950;51.230;4.012;2022-10-26T03:26:30;15.20;99.90
23544;DHT22;11950;51.230;4.012;2022-10-26T03:28:56;15.20;99.90
23544;DHT22;11950;51.230;4.012;2022-10-26T03:31:22;15.20;99.90
23544;DHT22;11950;51.230;4.012;2022-10-26T03:33:49;15.10;99.90
23544;DHT22;11950;51.230;4.012;2022-10-26T03:36:15;15.30;99.90
23544;DHT22;11950;51.230;4.012;2022-10-26T03:38:41;15.10;99.90
23544;DHT22;11950;51.230;4.012;2022-10-26T03:41:07;15.20;99.90
23544;DHT22;11950;51.230;4.012;2022-10-26T03:43:34;15.10;99.90
23544;DHT22;11950;51.230;4.012;2022-10-26T03:46:00;15.10;99.90
23544;DHT22;11950;51.230;4.012;2022-10-26T03:48:26;15.10;99.90
23544;DHT22;11950;51.230;4.012;2022-10-26T03:55:49;15.20;99.90
23544;DHT22;11950;51.230;4.012;2022-10-26T03:58:15;15.10;99.90
23544;DHT22;11950;51.230;4.012;2022-10-26T04:00:42;15.10;99.90
23544;DHT22;11950;51.230;4.012;2022-10-26T04:03:08;15.10;99.90
23544;DHT22;11950;51.230;4.012;2022-10-26T04:05:34;15.10;99.90
23544;DHT22;11950;51.230;4.012;2022-10-26T04:08:01;15.20;99.90
23544;DHT22;11950;51.230;4.012;2022-10-26T04:10:30;15.30;99.90
23544;DHT22;11950;51.230;4.012;2022-10-26T04:12:56;15.70;99.90
23544;DHT22;11950;51.230;4.012;2022-10-26T04:15:24;15.30;99.90
23544;DHT22;11950;51.230;4.012;2022-10-26T04:18:00;15.30;99.90
23544;DHT22;11950;51.230;4.012;2022-10-26T04:20:28;15.10;99.90
23544;DHT22;11950;51.230;4.012;2022-10-26T04:23:04;15.30;99.90
23544;DHT22;11950;51.230;4.012;2022-10-26T04:25:32;15.30;99.90
23544;DHT22;11950;51.230;4.012;2022-10-26T04:30:25;15.20;99.90
23544;DHT22;11950;51.230;4.012;2022-10-26T04:32:51;15.40;99.90
23544;DHT22;11950;51.230;4.012;2022-10-26T04:35:18;15.40;99.90
23544;DHT22;11950;51.230;4.012;2022-10-26T04:37:44;15.30;99.90
23544;DHT22;11950;51.230;4.012;2022-10-26T04:40:10;15.50;99.90
23544;DHT22;11950;51.230;4.012;2022-10-26T04:42:44;15.40;99.90
23544;DHT22;11950;51.230;4.012;2022-10-26T04:45:13;15.40;99.90
23544;DHT22;11950;51.230;4.012;2022-10-26T04:47:39;15.40;99.90
23544;DHT22;11950;51.230;4.012;2022-10-26T04:50:07;15.40;99.90
23544;DHT22;11950;51.230;4.012;2022-10-26T04:52:34;15.40;99.90
23544;DHT22;11950;51.230;4.012;2022-10-26T04:55:00;15.40;99.90
23544;DHT22;11950;51.230;4.012;2022-10-26T04:57:26;15.20;99.90
23544;DHT22;11950;51.230;4.012;2022-10-26T04:59:53;15.30;99.90
23544;DHT22;11950;51.230;4.012;2022-10-26T05:02:19;15.30;99.90
23544;DHT22;11950;51.230;4.012;2022-10-26T05:04:46;15.30;99.90
23544;DHT22;11950;51.230;4.012;2022-10-26T05:07:12;15.20;99.90
23544;DHT22;11950;51.230;4.012;2022-10-26T05:09:38;15.40;99.90
23544;DHT22;11950;51.230;4.012;2022-10-26T05:12:05;15.50;99.90
23544;DHT22;11950;51.230;4.012;2022-10-26T05:14:31;15.40;99.90
23544;DHT22;11950;51.230;4.012;2022-10-26T05:16:57;15.40;99.90
23544;DHT22;11950;51.230;4.012;2022-10-26T05:19:23;15.40;99.90
23544;DHT22;11950;51.230;4.012;2022-10-26T05:21:49;15.40;99.90
23544;DHT22;11950;51.230;4.012;2022-10-26T05:24:18;15.50;99.90
23544;DHT22;11950;51.230;4.012;2022-10-26T05:26:45;16.00;99.90
23544;DHT22;11950;51.230;4.012;2022-10-26T05:29:11;15.30;99.90
23544;DHT22;11950;51.230;4.012;2022-10-26T05:31:37;15.40;99.90
23544;DHT22;11950;51.230;4.012;2022-10-26T05:34:03;15.90;99.90
23544;DHT22;11950;51.230;4.012;2022-10-26T05:36:29;15.30;99.90
23544;DHT22;11950;51.230;4.012;2022-10-26T05:38:59;15.50;99.90
23544;DHT22;11950;51.230;4.012;2022-10-26T05:41:25;15.50;99.90
23544;DHT22;11950;51.230;4.012;2022-10-26T05:43:51;15.40;99.90
23544;DHT22;11950;51.230;4.012;2022-10-26T05:46:17;15.40;99.90
23544;DHT22;11950;51.230;4.012;2022-10-26T05:48:44;15.50;99.90
23544;DHT22;11950;51.230;4.012;2022-10-26T05:51:10;15.40;99.90
23544;DHT22;11950;51.230;4.012;2022-10-26T05:53:37;15.50;99.90
23544;DHT22;11950;51.230;4.012;2022-10-26T05:56:25;15.40;99.90
23544;DHT22;11950;51.230;4.012;2022-10-26T05:58:55;15.40;99.90
23544;DHT22;11950;51.230;4.012;2022-10-26T06:01:27;15.50;99.90
23544;DHT22;11950;51.230;4.012;2022-10-26T06:06:46;15.40;99.90
23544;DHT22;11950;51.230;4.012;2022-10-26T06:09:14;15.50;99.90
23544;DHT22;11950;51.230;4.012;2022-10-26T06:11:40;16.30;99.90
23544;DHT22;11950;51.230;4.012;2022-10-26T06:14:08;15.70;99.90
23544;DHT22;11950;51.230;4.012;2022-10-26T06:16:57;16.10;99.90
23544;DHT22;11950;51.230;4.012;2022-10-26T06:22:37;15.30;99.90
23544;DHT22;11950;51.230;4.012;2022-10-26T06:30:48;15.30;99.90
23544;DHT22;11950;51.230;4.012;2022-10-26T06:33:15;15.30;99.90
23544;DHT22;11950;51.230;4.012;2022-10-26T06:38:13;15.30;99.90
23544;DHT22;11950;51.230;4.012;2022-10-26T06:40:42;15.30;99.90
23544;DHT22;11950;51.230;4.012;2022-10-26T06:43:24;15.40;99.90
23544;DHT22;11950;51.230;4.012;2022-10-26T06:52:00;15.30;99.90
23544;DHT22;11950;51.230;4.012;2022-10-26T06:57:15;15.30;99.90
23544;DHT22;11950;51.230;4.012;2022-10-26T06:59:56;14.90;99.90
23544;DHT22;11950;51.230;4.012;2022-10-26T07:02:23;15.20;99.90
23544;DHT22;11950;51.230;4.012;2022-10-26T07:04:49;15.50;99.90
23544;DHT22;11950;51.230;4.012;2022-10-26T07:07:20;15.60;99.90
23544;DHT22;11950;51.230;4.012;2022-10-26T07:12:14;15.60;99.90
23544;DHT22;11950;51.230;4.012;2022-10-26T07:14:40;15.40;99.90
23544;DHT22;11950;51.230;4.012;2022-10-26T07:17:07;15.70;99.90
23544;DHT22;11950;51.230;4.012;2022-10-26T07:19:34;15.50;99.90
23544;DHT22;11950;51.230;4.012;2022-10-26T07:22:00;15.30;99.90
23544;DHT22;11950;51.230;4.012;2022-10-26T07:24:27;15.80;99.90
23544;DHT22;11950;51.230;4.012;2022-10-26T07:26:55;15.60;99.90
23544;DHT22;11950;51.230;4.012;2022-10-26T07:29:22;15.90;99.90
23544;DHT22;11950;51.230;4.012;2022-10-26T07:36:41;16.00;99.90
23544;DHT22;11950;51.230;4.012;2022-10-26T07:39:07;16.30;99.90
23544;DHT22;11950;51.230;4.012;2022-10-26T07:41:34;16.50;99.90
23544;DHT22;11950;51.230;4.012;2022-10-26T07:46:27;16.30;99.90
23544;DHT22;11950;51.230;4.012;2022-10-26T07:48:54;16.00;99.90
23544;DHT22;11950;51.230;4.012;2022-10-26T07:51:21;16.70;99.90
23544;DHT22;11950;51.230;4.012;2022-10-26T07:53:47;16.80;99.90
23544;DHT22;11950;51.230;4.012;2022-10-26T07:56:13;17.00;99.90
23544;DHT22;11950;51.230;4.012;2022-10-26T08:01:09;16.00;99.90
23544;DHT22;11950;51.230;4.012;2022-10-26T08:03:36;16.30;99.90
23544;DHT22;11950;51.230;4.012;2022-10-26T08:08:31;16.30;99.90
23544;DHT22;11950;51.230;4.012;2022-10-26T08:10:57;16.50;99.90
23544;DHT22;11950;51.230;4.012;2022-10-26T08:13:25;16.40;99.90
23544;DHT22;11950;51.230;4.012;2022-10-26T08:16:02;17.20;99.90
23544;DHT22;11950;51.230;4.012;2022-10-26T08:18:29;17.60;99.90
23544;DHT22;11950;51.230;4.012;2022-10-26T08:21:04;16.80;99.90
23544;DHT22;11950;51.230;4.012;2022-10-26T08:23:32;16.90;99.90
23544;DHT22;11950;51.230;4.012;2022-10-26T08:25:59;16.90;99.90
23544;DHT22;11950;51.230;4.012;2022-10-26T08:28:26;16.90;99.90
23544;DHT22;11950;51.230;4.012;2022-10-26T08:30:52;16.90;99.90
23544;DHT22;11950;51.230;4.012;2022-10-26T08:33:19;17.40;99.90
23544;DHT22;11950;51.230;4.012;2022-10-26T08:35:45;17.20;99.90
23544;DHT22;11950;51.230;4.012;2022-10-26T08:38:11;17.10;99.90
23544;DHT22;11950;51.230;4.012;2022-10-26T08:40:40;17.20;99.90
23544;DHT22;11950;51.230;4.012;2022-10-26T08:43:18;17.20;99.90
23544;DHT22;11950;51.230;4.012;2022-10-26T08:48:53;17.40;99.90
23544;DHT22;11950;51.230;4.012;2022-10-26T08:51:24;17.50;99.90
23544;DHT22;11950;51.230;4.012;2022-10-26T08:53:56;17.40;99.90
23544;DHT22;11950;51.230;4.012;2022-10-26T08:56:26;17.50;99.90
23544;DHT22;11950;51.230;4.012;2022-10-26T08:59:32;17.60;99.90
23544;DHT22;11950;51.230;4.012;2022-10-26T09:01:59;17.60;99.90
23544;DHT22;11950;51.230;4.012;2022-10-26T09:04:28;17.50;99.90
23544;DHT22;11950;51.230;4.012;2022-10-26T09:07:14;17.60;99.90
23544;DHT22;11950;51.230;4.012;2022-10-26T09:17:41;17.90;99.90
23544;DHT22;11950;51.230;4.012;2022-10-26T09:22:51;18.00;99.90
23544;DHT22;11950;51.230;4.012;2022-10-26T09:25:23;18.00;99.90
23544;DHT22;11950;51.230;4.012;2022-10-26T09:28:00;20.50;99.90
23544;DHT22;11950;51.230;4.012;2022-10-26T09:30:26;17.80;99.90
23544;DHT22;11950;51.230;4.012;2022-10-26T09:33:02;18.30;99.90
23544;DHT22;11950;51.230;4.012;2022-10-26T09:36:00;18.00;99.90
23544;DHT22;11950;51.230;4.012;2022-10-26T09:38:28;18.30;99.90
23544;DHT22;11950;51.230;4.012;2022-10-26T09:44:48;18.50;99.90
23544;DHT22;11950;51.230;4.012;2022-10-26T09:47:00;18.30;99.90
23544;DHT22;11950;51.230;4.012;2022-10-26T09:49:44;18.40;99.90
23544;DHT22;11950;51.230;4.012;2022-10-26T09:52:14;17.30;99.90
23544;DHT22;11950;51.230;4.012;2022-10-26T09:54:41;18.60;99.90
23544;DHT22;11950;51.230;4.012;2022-10-26T09:57:08;18.70;99.90
23544;DHT22;11950;51.230;4.012;2022-10-26T09:59:39;18.70;99.90
23544;DHT22;11950;51.230;4.012;2022-10-26T10:02:31;21.30;99.90
23544;DHT22;11950;51.230;4.012;2022-10-26T10:04:57;18.70;99.90
23544;DHT22;11950;51.230;4.012;2022-10-26T10:07:23;18.80;99.90
23544;DHT22;11950;51.230;4.012;2022-10-26T10:10:07;18.60;99.90
23544;DHT22;11950;51.230;4.012;2022-10-26T10:17:27;18.90;99.90
23544;DHT22;11950;51.230;4.012;2022-10-26T10:19:53;19.00;99.90
23544;DHT22;11950;51.230;4.012;2022-10-26T10:22:24;18.80;99.90
23544;DHT22;11950;51.230;4.012;2022-10-26T10:24:57;19.30;99.90
23544;DHT22;11950;51.230;4.012;2022-10-26T10:27:24;19.30;99.90
23544;DHT22;11950;51.230;4.012;2022-10-26T10:29:55;19.30;99.90
23544;DHT22;11950;51.230;4.012;2022-10-26T10:32:27;19.20;99.90
23544;DHT22;11950;51.230;4.012;2022-10-26T10:34:57;19.10;99.90
23544;DHT22;11950;51.230;4.012;2022-10-26T10:37:30;19.30;99.90
23544;DHT22;11950;51.230;4.012;2022-10-26T10:40:03;19.50;99.90
23544;DHT22;11950;51.230;4.012;2022-10-26T10:42:34;18.80;99.90
23544;DHT22;11950;51.230;4.012;2022-10-26T10:45:03;19.40;99.90
23544;DHT22;11950;51.230;4.012;2022-10-26T10:47:32;19.50;99.90
23544;DHT22;11950;51.230;4.012;2022-10-26T10:52:32;19.70;99.90
23544;DHT22;11950;51.230;4.012;2022-10-26T10:55:20;19.50;99.90
23544;DHT22;11950;51.230;4.012;2022-10-26T11:00:53;19.60;99.90
23544;DHT22;11950;51.230;4.012;2022-10-26T11:03:44;19.70;99.90
23544;DHT22;11950;51.230;4.012;2022-10-26T11:06:17;19.70;99.90
23544;DHT22;11950;51.230;4.012;2022-10-26T11:08:49;19.60;99.90
23544;DHT22;11950;51.230;4.012;2022-10-26T11:11:32;19.70;99.90
23544;DHT22;11950;51.230;4.012;2022-10-26T11:16:42;19.70;99.90
23544;DHT22;11950;51.230;4.012;2022-10-26T11:19:26;19.80;99.90
23544;DHT22;11950;51.230;4.012;2022-10-26T11:21:55;19.80;99.90
23544;DHT22;11950;51.230;4.012;2022-10-26T11:32:21;20.00;99.90
23544;DHT22;11950;51.230;4.012;2022-10-26T11:35:09;19.40;99.90
23544;DHT22;11950;51.230;4.012;2022-10-26T11:46:05;20.20;99.90
23544;DHT22;11950;51.230;4.012;2022-10-26T11:48:50;20.10;99.90
23544;DHT22;11950;51.230;4.012;2022-10-26T11:51:37;20.20;99.90
23544;DHT22;11950;51.230;4.012;2022-10-26T11:54:11;20.10;99.90
23544;DHT22;11950;51.230;4.012;2022-10-26T11:56:45;20.10;99.90
23544;DHT22;11950;51.230;4.012;2022-10-26T11:59:24;20.00;99.90
23544;DHT22;11950;51.230;4.012;2022-10-26T12:01:53;20.20;99.90
23544;DHT22;11950;51.230;4.012;2022-10-26T12:04:23;20.10;99.90
23544;DHT22;11950;51.230;4.012;2022-10-26T12:06:52;20.10;99.90
23544;DHT22;11950;51.230;4.012;2022-10-26T12:09:25;20.20;99.90
23544;DHT22;11950;51.230;4.012;2022-10-26T12:14:36;19.70;99.90
23544;DHT22;11950;51.230;4.012;2022-10-26T12:17:23;20.50;99.90
23544;DHT22;11950;51.230;4.012;2022-10-26T12:37:58;20.10;99.90
23544;DHT22;11950;51.230;4.012;2022-10-26T12:40:37;20.50;99.90
23544;DHT22;11950;51.230;4.012;2022-10-26T12:45:46;20.30;99.90
23544;DHT22;11950;51.230;4.012;2022-10-26T12:48:23;20.20;99.90
23544;DHT22;11950;51.230;4.012;2022-10-26T12:50:51;20.10;99.90
23544;DHT22;11950;51.230;4.012;2022-10-26T12:53:19;20.10;99.90
23544;DHT22;11950;51.230;4.012;2022-10-26T13:03:49;20.50;99.90
23544;DHT22;11950;51.230;4.012;2022-10-26T13:06:29;20.30;99.90
23544;DHT22;11950;51.230;4.012;2022-10-26T13:09:29;20.50;99.90
23544;DHT22;11950;51.230;4.012;2022-10-26T13:12:01;20.30;99.90
23544;DHT22;11950;51.230;4.012;2022-10-26T13:14:48;20.40;99.90
23544;DHT22;11950;51.230;4.012;2022-10-26T13:17:25;20.50;99.90
23544;DHT22;11950;51.230;4.012;2022-10-26T13:20:16;20.50;99.90
23544;DHT22;11950;51.230;4.012;2022-10-26T13:22:46;20.40;99.90
23544;DHT22;11950;51.230;4.012;2022-10-26T13:25:22;20.60;99.90
23544;DHT22;11950;51.230;4.012;2022-10-26T13:28:02;20.30;99.90
23544;DHT22;11950;51.230;4.012;2022-10-26T13:30:40;20.60;99.90
23544;DHT22;11950;51.230;4.012;2022-10-26T13:33:15;20.60;99.90
23544;DHT22;11950;51.230;4.012;2022-10-26T13:35:43;20.20;99.90
23544;DHT22;11950;51.230;4.012;2022-10-26T13:38:10;20.40;99.90
23544;DHT22;11950;51.230;4.012;2022-10-26T13:40:38;20.50;99.90
23544;DHT22;11950;51.230;4.012;2022-10-26T13:43:09;20.50;99.90
23544;DHT22;11950;51.230;4.012;2022-10-26T13:46:01;20.50;99.90
23544;DHT22;11950;51.230;4.012;2022-10-26T13:48:41;20.50;99.90
23544;DHT22;11950;51.230;4.012;2022-10-26T13:51:20;20.60;99.90
23544;DHT22;11950;51.230;4.012;2022-10-26T13:53:54;20.60;99.90
23544;DHT22;11950;51.230;4.012;2022-10-26T13:56:28;20.70;99.90
23544;DHT22;11950;51.230;4.012;2022-10-26T13:59:11;21.00;99.90
23544;DHT22;11950;51.230;4.012;2022-10-26T14:04:25;20.30;99.90
23544;DHT22;11950;51.230;4.012;2022-10-26T14:06:52;21.10;99.90
23544;DHT22;11950;51.230;4.012;2022-10-26T14:09:19;20.90;99.90
23544;DHT22;11950;51.230;4.012;2022-10-26T14:11:49;20.70;99.90
23544;DHT22;11950;51.230;4.012;2022-10-26T14:14:20;20.70;99.90
23544;DHT22;11950;51.230;4.012;2022-10-26T14:16:49;20.70;99.90
23544;DHT22;11950;51.230;4.012;2022-10-26T14:19:27;20.60;99.90
23544;DHT22;11950;51.230;4.012;2022-10-26T14:21:54;20.40;99.90
23544;DHT22;11950;51.230;4.012;2022-10-26T14:24:25;20.50;99.90
23544;DHT22;11950;51.230;4.012;2022-10-26T14:26:52;20.60;99.90
23544;DHT22;11950;51.230;4.012;2022-10-26T14:29:21;20.70;99.90
23544;DHT22;11950;51.230;4.012;2022-10-26T14:31:47;20.60;99.90
23544;DHT22;11950;51.230;4.012;2022-10-26T14:34:18;20.40;99.90
23544;DHT22;11950;51.230;4.012;2022-10-26T14:42:31;21.40;99.90
23544;DHT22;11950;51.230;4.012;2022-10-26T14:44:56;20.40;99.90
23544;DHT22;11950;51.230;4.012;2022-10-26T14:47:31;20.70;99.90
23544;DHT22;11950;51.230;4.012;2022-10-26T14:49:58;20.90;99.90
23544;DHT22;11950;51.230;4.012;2022-10-26T14:52:28;20.70;99.90
23544;DHT22;11950;51.230;4.012;2022-10-26T14:55:03;20.30;99.90
23544;DHT22;11950;51.230;4.012;2022-10-26T14:57:35;20.40;99.90
23544;DHT22;11950;51.230;4.012;2022-10-26T15:00:24;20.50;99.90
23544;DHT22;11950;51.230;4.012;2022-10-26T15:02:54;20.90;99.90
23544;DHT22;11950;51.230;4.012;2022-10-26T15:05:27;20.80;99.90
23544;DHT22;11950;51.230;4.012;2022-10-26T15:07:59;20.70;99.90
23544;DHT22;11950;51.230;4.012;2022-10-26T15:15:55;20.60;99.90
23544;DHT22;11950;51.230;4.012;2022-10-26T15:18:30;20.70;99.90
23544;DHT22;11950;51.230;4.012;2022-10-26T15:20:58;20.30;99.90
23544;DHT22;11950;51.230;4.012;2022-10-26T15:23:26;20.70;99.90
23544;DHT22;11950;51.230;4.012;2022-10-26T15:25:58;20.40;99.90
23544;DHT22;11950;51.230;4.012;2022-10-26T15:33:42;20.40;99.90
23544;DHT22;11950;51.230;4.012;2022-10-26T15:38:35;21.20;99.90
23544;DHT22;11950;51.230;4.012;2022-10-26T15:41:03;20.80;99.90
23544;DHT22;11950;51.230;4.012;2022-10-26T15:45:56;19.90;99.90
23544;DHT22;11950;51.230;4.012;2022-10-26T15:48:27;20.90;99.90
23544;DHT22;11950;51.230;4.012;2022-10-26T15:53:24;20.50;99.90
23544;DHT22;11950;51.230;4.012;2022-10-26T15:55:56;20.50;99.90
23544;DHT22;11950;51.230;4.012;2022-10-26T16:03:19;20.20;99.90
23544;DHT22;11950;51.230;4.012;2022-10-26T16:05:46;20.10;99.90
23544;DHT22;11950;51.230;4.012;2022-10-26T16:08:16;20.20;99.90
23544;DHT22;11950;51.230;4.012;2022-10-26T16:10:43;20.50;99.90
23544;DHT22;11950;51.230;4.012;2022-10-26T16:13:13;20.40;99.90
23544;DHT22;11950;51.230;4.012;2022-10-26T16:18:06;20.10;99.90
23544;DHT22;11950;51.230;4.012;2022-10-26T16:25:33;20.20;99.90
23544;DHT22;11950;51.230;4.012;2022-10-26T16:30:28;20.10;99.90
23544;DHT22;11950;51.230;4.012;2022-10-26T16:32:55;20.70;99.90
23544;DHT22;11950;51.230;4.012;2022-10-26T16:42:41;19.60;99.90
23544;DHT22;11950;51.230;4.012;2022-10-26T16:45:10;19.80;99.90
23544;DHT22;11950;51.230;4.012;2022-10-26T16:47:37;19.70;99.90
23544;DHT22;11950;51.230;4.012;2022-10-26T16:50:06;19.70;99.90
23544;DHT22;11950;51.230;4.012;2022-10-26T16:52:33;19.70;99.90
23544;DHT22;11950;51.230;4.012;2022-10-26T16:54:59;19.70;99.90
23544;DHT22;11950;51.230;4.012;2022-10-26T16:57:26;20.00;99.90
23544;DHT22;11950;51.230;4.012;2022-10-26T16:59:52;19.60;99.90
23544;DHT22;11950;51.230;4.012;2022-10-26T17:02:18;19.60;99.90
23544;DHT22;11950;51.230;4.012;2022-10-26T17:04:45;19.60;99.90
23544;DHT22;11950;51.230;4.012;2022-10-26T17:07:11;19.50;99.90
23544;DHT22;11950;51.230;4.012;2022-10-26T17:09:38;19.60;99.90
23544;DHT22;11950;51.230;4.012;2022-10-26T17:12:04;19.50;99.90
23544;DHT22;11950;51.230;4.012;2022-10-26T17:14:31;19.50;99.90
23544;DHT22;11950;51.230;4.012;2022-10-26T17:16:57;19.50;99.90
23544;DHT22;11950;51.230;4.012;2022-10-26T17:19:24;19.40;99.90
23544;DHT22;11950;51.230;4.012;2022-10-26T17:21:50;19.50;99.90
23544;DHT22;11950;51.230;4.012;2022-10-26T17:24:16;19.40;99.90
23544;DHT22;11950;51.230;4.012;2022-10-26T17:26:43;19.30;99.90
23544;DHT22;11950;51.230;4.012;2022-10-26T17:29:11;19.40;99.90
23544;DHT22;11950;51.230;4.012;2022-10-26T17:31:38;19.30;99.90
23544;DHT22;11950;51.230;4.012;2022-10-26T17:34:04;19.40;99.90
23544;DHT22;11950;51.230;4.012;2022-10-26T17:36:30;19.40;99.90
23544;DHT22;11950;51.230;4.012;2022-10-26T17:38:57;19.30;99.90
23544;DHT22;11950;51.230;4.012;2022-10-26T17:41:23;19.30;99.90
23544;DHT22;11950;51.230;4.012;2022-10-26T17:43:50;19.20;99.90
23544;DHT22;11950;51.230;4.012;2022-10-26T17:46:21;19.00;99.90
23544;DHT22;11950;51.230;4.012;2022-10-26T17:48:57;19.10;99.90
23544;DHT22;11950;51.230;4.012;2022-10-26T17:51:24;19.10;99.90
23544;DHT22;11950;51.230;4.012;2022-10-26T17:53:51;18.50;99.90
23544;DHT22;11950;51.230;4.012;2022-10-26T17:56:20;18.90;99.90
23544;DHT22;11950;51.230;4.012;2022-10-26T17:58:56;18.80;99.90
23544;DHT22;11950;51.230;4.012;2022-10-26T18:01:23;18.80;99.90
23544;DHT22;11950;51.230;4.012;2022-10-26T18:03:52;18.90;99.90
23544;DHT22;11950;51.230;4.012;2022-10-26T18:06:19;18.60;99.90
23544;DHT22;11950;51.230;4.012;2022-10-26T18:08:46;18.50;99.90
23544;DHT22;11950;51.230;4.012;2022-10-26T18:11:15;18.60;99.90
23544;DHT22;11950;51.230;4.012;2022-10-26T18:13:44;18.50;99.90
23544;DHT22;11950;51.230;4.012;2022-10-26T18:16:16;18.50;99.90
23544;DHT22;11950;51.230;4.012;2022-10-26T18:18:45;18.50;99.90
23544;DHT22;11950;51.230;4.012;2022-10-26T18:21:17;18.40;99.90
23544;DHT22;11950;51.230;4.012;2022-10-26T18:23:43;18.40;99.90
23544;DHT22;11950;51.230;4.012;2022-10-26T18:26:17;18.60;99.90
23544;DHT22;11950;51.230;4.012;2022-10-26T18:28:43;18.40;99.90
23544;DHT22;11950;51.230;4.012;2022-10-26T18:31:13;18.40;99.90
23544;DHT22;11950;51.230;4.012;2022-10-26T18:33:40;18.30;99.90
23544;DHT22;11950;51.230;4.012;2022-10-26T18:36:12;18.40;99.90
23544;DHT22;11950;51.230;4.012;2022-10-26T18:38:39;18.30;99.90
23544;DHT22;11950;51.230;4.012;2022-10-26T18:41:07;18.30;99.90
23544;DHT22;11950;51.230;4.012;2022-10-26T18:43:38;18.40;99.90
23544;DHT22;11950;51.230;4.012;2022-10-26T18:46:07;17.70;99.90
23544;DHT22;11950;51.230;4.012;2022-10-26T18:48:34;18.30;99.90
23544;DHT22;11950;51.230;4.012;2022-10-26T18:51:08;18.40;99.90
23544;DHT22;11950;51.230;4.012;2022-10-26T18:53:36;18.60;99.90
23544;DHT22;11950;51.230;4.012;2022-10-26T18:56:05;18.50;99.90
23544;DHT22;11950;51.230;4.012;2022-10-26T18:58:33;18.50;99.90
23544;DHT22;11950;51.230;4.012;2022-10-26T19:01:21;18.40;99.90
23544;DHT22;11950;51.230;4.012;2022-10-26T19:03:51;18.40;99.90
23544;DHT22;11950;51.230;4.012;2022-10-26T19:06:23;19.00;99.90
23544;DHT22;11950;51.230;4.012;2022-10-26T19:08:50;18.00;99.90
23544;DHT22;11950;51.230;4.012;2022-10-26T19:11:18;19.10;99.90
23544;DHT22;11950;51.230;4.012;2022-10-26T19:13:45;18.40;99.90
23544;DHT22;11950;51.230;4.012;2022-10-26T19:16:14;18.30;99.90